sensor_id;sensor_type;location;lat;lon;timestamp;P1;durP1;ratioP1;P2;durP2;ratioP2
48665;SDS011;34452;50.796;4.994;2022-08-19T00:01:47;24.17;;;19.65;;
48665;SDS011;34452;50.796;4.994;2022-08-19T00:04:17;26.10;;;18.98;;
48665;SDS011;34452;50.796;4.994;2022-08-19T00:06:44;26.77;;;20.00;;
48665;SDS011;34452;50.796;4.994;2022-08-19T00:09:12;20.67;;;17.38;;
48665;SDS011;34452;50.796;4.994;2022-08-19T00:11:40;22.05;;;18.63;;
48665;SDS011;34452;50.796;4.994;2022-08-19T00:14:08;23.77;;;19.65;;
48665;SDS011;34452;50.796;4.994;2022-08-19T00:16:35;25.50;;;19.85;;
48665;SDS011;34452;50.796;4.994;2022-08-19T00:19:02;28.33;;;21.30;;
48665;SDS011;34452;50.796;4.994;2022-08-19T00:21:28;27.75;;;20.73;;
48665;SDS011;34452;50.796;4.994;2022-08-19T00:23:54;24.20;;;19.98;;
48665;SDS011;34452;50.796;4.994;2022-08-19T00:26:23;28.85;;;22.75;;
48665;SDS011;34452;50.796;4.994;2022-08-19T00:28:49;27.35;;;23.13;;
48665;SDS011;34452;50.796;4.994;2022-08-19T00:31:15;28.23;;;23.98;;
48665;SDS011;34452;50.796;4.994;2022-08-19T00:33:41;32.05;;;23.65;;
48665;SDS011;34452;50.796;4.994;2022-08-19T00:36:08;35.00;;;26.80;;
48665;SDS011;34452;50.796;4.994;2022-08-19T00:38:36;34.95;;;29.75;;
48665;SDS011;34452;50.796;4.994;2022-08-19T00:41:06;32.13;;;26.27;;
48665;SDS011;34452;50.796;4.994;2022-08-19T00:43:33;37.60;;;31.25;;
48665;SDS011;34452;50.796;4.994;2022-08-19T00:45:59;38.40;;;27.75;;
48665;SDS011;34452;50.796;4.994;2022-08-19T00:48:29;36.60;;;30.08;;
48665;SDS011;34452;50.796;4.994;2022-08-19T00:50:56;30.02;;;25.55;;
48665;SDS011;34452;50.796;4.994;2022-08-19T00:53:24;41.75;;;27.05;;
48665;SDS011;34452;50.796;4.994;2022-08-19T00:55:54;42.88;;;28.70;;
48665;SDS011;34452;50.796;4.994;2022-08-19T00:58:27;35.70;;;27.17;;
48665;SDS011;34452;50.796;4.994;2022-08-19T01:00:56;36.25;;;28.95;;
48665;SDS011;34452;50.796;4.994;2022-08-19T01:03:23;33.65;;;27.42;;
48665;SDS011;34452;50.796;4.994;2022-08-19T01:05:49;39.35;;;27.10;;
48665;SDS011;34452;50.796;4.994;2022-08-19T01:08:17;42.67;;;31.40;;
48665;SDS011;34452;50.796;4.994;2022-08-19T01:10:46;36.47;;;28.30;;
48665;SDS011;34452;50.796;4.994;2022-08-19T01:13:18;37.22;;;26.00;;
48665;SDS011;34452;50.796;4.994;2022-08-19T01:15:50;30.63;;;25.08;;
48665;SDS011;34452;50.796;4.994;2022-08-19T01:18:22;36.38;;;27.13;;
48665;SDS011;34452;50.796;4.994;2022-08-19T01:20:50;30.77;;;25.25;;
48665;SDS011;34452;50.796;4.994;2022-08-19T01:23:17;34.20;;;25.95;;
48665;SDS011;34452;50.796;4.994;2022-08-19T01:25:44;40.05;;;29.10;;
48665;SDS011;34452;50.796;4.994;2022-08-19T01:28:17;34.65;;;26.45;;
48665;SDS011;34452;50.796;4.994;2022-08-19T01:30:46;38.70;;;26.83;;
48665;SDS011;34452;50.796;4.994;2022-08-19T01:33:12;34.10;;;25.30;;
48665;SDS011;34452;50.796;4.994;2022-08-19T01:35:39;34.97;;;26.95;;
48665;SDS011;34452;50.796;4.994;2022-08-19T01:38:06;37.20;;;26.70;;
48665;SDS011;34452;50.796;4.994;2022-08-19T01:40:37;42.28;;;30.20;;
48665;SDS011;34452;50.796;4.994;2022-08-19T01:43:05;42.05;;;29.27;;
48665;SDS011;34452;50.796;4.994;2022-08-19T01:47:58;43.97;;;29.33;;
48665;SDS011;34452;50.796;4.994;2022-08-19T01:50:24;50.50;;;30.80;;
48665;SDS011;34452;50.796;4.994;2022-08-19T01:52:50;48.33;;;31.80;;
48665;SDS011;34452;50.796;4.994;2022-08-19T01:57:45;39.67;;;27.80;;
48665;SDS011;34452;50.796;4.994;2022-08-19T02:00:16;48.28;;;32.42;;
48665;SDS011;34452;50.796;4.994;2022-08-19T02:02:44;46.40;;;30.58;;
48665;SDS011;34452;50.796;4.994;2022-08-19T02:05:10;45.78;;;29.95;;
48665;SDS011;34452;50.796;4.994;2022-08-19T02:07:38;48.63;;;31.95;;
48665;SDS011;34452;50.796;4.994;2022-08-19T02:10:07;51.28;;;32.67;;
48665;SDS011;34452;50.796;4.994;2022-08-19T02:12:34;57.05;;;34.92;;
48665;SDS011;34452;50.796;4.994;2022-08-19T02:15:00;55.92;;;34.85;;
48665;SDS011;34452;50.796;4.994;2022-08-19T02:17:28;51.72;;;33.75;;
48665;SDS011;34452;50.796;4.994;2022-08-19T02:19:55;56.63;;;35.90;;
48665;SDS011;34452;50.796;4.994;2022-08-19T02:22:22;53.55;;;32.55;;
48665;SDS011;34452;50.796;4.994;2022-08-19T02:24:50;57.38;;;35.22;;
48665;SDS011;34452;50.796;4.994;2022-08-19T02:29:42;58.70;;;34.47;;
48665;SDS011;34452;50.796;4.994;2022-08-19T02:32:08;48.33;;;32.13;;
48665;SDS011;34452;50.796;4.994;2022-08-19T02:34:34;52.97;;;32.38;;
48665;SDS011;34452;50.796;4.994;2022-08-19T02:37:00;64.60;;;39.15;;
48665;SDS011;34452;50.796;4.994;2022-08-19T02:39:25;54.15;;;35.75;;
48665;SDS011;34452;50.796;4.994;2022-08-19T02:41:51;68.38;;;41.22;;
48665;SDS011;34452;50.796;4.994;2022-08-19T02:44:17;51.92;;;34.65;;
48665;SDS011;34452;50.796;4.994;2022-08-19T02:46:45;59.15;;;39.58;;
48665;SDS011;34452;50.796;4.994;2022-08-19T02:49:12;58.60;;;36.97;;
48665;SDS011;34452;50.796;4.994;2022-08-19T02:51:42;59.05;;;37.47;;
48665;SDS011;34452;50.796;4.994;2022-08-19T02:54:11;56.95;;;35.55;;
48665;SDS011;34452;50.796;4.994;2022-08-19T02:56:38;69.60;;;40.75;;
48665;SDS011;34452;50.796;4.994;2022-08-19T02:59:05;66.13;;;39.03;;
48665;SDS011;34452;50.796;4.994;2022-08-19T03:01:36;68.45;;;37.20;;
48665;SDS011;34452;50.796;4.994;2022-08-19T03:04:05;70.85;;;40.85;;
48665;SDS011;34452;50.796;4.994;2022-08-19T03:06:35;57.35;;;36.08;;
48665;SDS011;34452;50.796;4.994;2022-08-19T03:09:02;57.75;;;36.40;;
48665;SDS011;34452;50.796;4.994;2022-08-19T03:11:28;68.30;;;38.22;;
48665;SDS011;34452;50.796;4.994;2022-08-19T03:13:55;56.28;;;34.78;;
48665;SDS011;34452;50.796;4.994;2022-08-19T03:16:23;59.85;;;35.65;;
48665;SDS011;34452;50.796;4.994;2022-08-19T03:18:52;59.67;;;37.60;;
48665;SDS011;34452;50.796;4.994;2022-08-19T03:24:05;74.40;;;39.20;;
48665;SDS011;34452;50.796;4.994;2022-08-19T03:26:33;61.47;;;36.17;;
48665;SDS011;34452;50.796;4.994;2022-08-19T03:31:38;63.80;;;38.10;;
48665;SDS011;34452;50.796;4.994;2022-08-19T03:34:04;76.15;;;40.88;;
48665;SDS011;34452;50.796;4.994;2022-08-19T03:36:30;55.30;;;33.50;;
48665;SDS011;34452;50.796;4.994;2022-08-19T03:38:58;49.60;;;33.30;;
48665;SDS011;34452;50.796;4.994;2022-08-19T03:41:27;70.80;;;36.40;;
48665;SDS011;34452;50.796;4.994;2022-08-19T03:43:56;58.78;;;34.35;;
48665;SDS011;34452;50.796;4.994;2022-08-19T03:48:50;64.43;;;37.05;;
48665;SDS011;34452;50.796;4.994;2022-08-19T03:51:20;53.75;;;34.33;;
48665;SDS011;34452;50.796;4.994;2022-08-19T03:53:49;59.70;;;36.17;;
48665;SDS011;34452;50.796;4.994;2022-08-19T03:58:41;62.72;;;37.58;;
48665;SDS011;34452;50.796;4.994;2022-08-19T04:01:08;63.03;;;36.50;;
48665;SDS011;34452;50.796;4.994;2022-08-19T04:03:35;62.95;;;36.03;;
48665;SDS011;34452;50.796;4.994;2022-08-19T04:06:14;61.50;;;37.40;;
48665;SDS011;34452;50.796;4.994;2022-08-19T04:08:43;67.45;;;36.92;;
48665;SDS011;34452;50.796;4.994;2022-08-19T04:11:11;56.92;;;34.65;;
48665;SDS011;34452;50.796;4.994;2022-08-19T04:13:39;57.22;;;34.95;;
48665;SDS011;34452;50.796;4.994;2022-08-19T04:16:05;51.20;;;32.20;;
48665;SDS011;34452;50.796;4.994;2022-08-19T04:18:33;55.92;;;34.08;;
48665;SDS011;34452;50.796;4.994;2022-08-19T04:20:59;54.38;;;34.08;;
48665;SDS011;34452;50.796;4.994;2022-08-19T04:23:25;49.97;;;31.67;;
48665;SDS011;34452;50.796;4.994;2022-08-19T04:25:53;47.90;;;31.60;;
48665;SDS011;34452;50.796;4.994;2022-08-19T04:28:19;46.95;;;32.05;;
48665;SDS011;34452;50.796;4.994;2022-08-19T04:30:46;49.22;;;30.83;;
48665;SDS011;34452;50.796;4.994;2022-08-19T04:33:14;43.95;;;29.67;;
48665;SDS011;34452;50.796;4.994;2022-08-19T04:35:43;53.90;;;31.70;;
48665;SDS011;34452;50.796;4.994;2022-08-19T04:38:10;48.10;;;30.17;;
48665;SDS011;34452;50.796;4.994;2022-08-19T04:40:47;51.25;;;30.55;;
48665;SDS011;34452;50.796;4.994;2022-08-19T04:43:51;49.95;;;32.15;;
48665;SDS011;34452;50.796;4.994;2022-08-19T04:46:17;46.70;;;30.20;;
48665;SDS011;34452;50.796;4.994;2022-08-19T04:48:43;48.08;;;29.45;;
48665;SDS011;34452;50.796;4.994;2022-08-19T04:51:10;44.58;;;27.77;;
48665;SDS011;34452;50.796;4.994;2022-08-19T04:53:38;45.95;;;29.55;;
48665;SDS011;34452;50.796;4.994;2022-08-19T04:56:07;51.80;;;32.65;;
48665;SDS011;34452;50.796;4.994;2022-08-19T04:58:35;47.03;;;29.25;;
48665;SDS011;34452;50.796;4.994;2022-08-19T05:01:02;43.63;;;30.17;;
48665;SDS011;34452;50.796;4.994;2022-08-19T05:03:28;48.75;;;31.88;;
48665;SDS011;34452;50.796;4.994;2022-08-19T05:05:59;50.58;;;32.42;;
48665;SDS011;34452;50.796;4.994;2022-08-19T05:08:32;42.28;;;28.33;;
48665;SDS011;34452;50.796;4.994;2022-08-19T05:10:58;49.95;;;29.13;;
48665;SDS011;34452;50.796;4.994;2022-08-19T05:13:24;43.00;;;28.33;;
48665;SDS011;34452;50.796;4.994;2022-08-19T05:15:53;42.95;;;28.27;;
48665;SDS011;34452;50.796;4.994;2022-08-19T05:18:20;46.35;;;27.98;;
48665;SDS011;34452;50.796;4.994;2022-08-19T05:21:06;41.17;;;27.15;;
48665;SDS011;34452;50.796;4.994;2022-08-19T05:23:51;51.23;;;29.23;;
48665;SDS011;34452;50.796;4.994;2022-08-19T05:26:17;43.05;;;26.83;;
48665;SDS011;34452;50.796;4.994;2022-08-19T05:28:43;37.55;;;23.35;;
48665;SDS011;34452;50.796;4.994;2022-08-19T05:31:08;40.45;;;26.05;;
48665;SDS011;34452;50.796;4.994;2022-08-19T05:33:34;48.33;;;28.00;;
48665;SDS011;34452;50.796;4.994;2022-08-19T05:36:01;41.95;;;25.90;;
48665;SDS011;34452;50.796;4.994;2022-08-19T05:38:27;41.08;;;25.60;;
48665;SDS011;34452;50.796;4.994;2022-08-19T05:40:54;51.60;;;29.83;;
48665;SDS011;34452;50.796;4.994;2022-08-19T05:43:21;41.70;;;24.90;;
48665;SDS011;34452;50.796;4.994;2022-08-19T05:45:46;42.58;;;26.85;;
48665;SDS011;34452;50.796;4.994;2022-08-19T05:48:12;49.67;;;28.92;;
48665;SDS011;34452;50.796;4.994;2022-08-19T05:50:39;50.95;;;29.45;;
48665;SDS011;34452;50.796;4.994;2022-08-19T05:53:06;45.28;;;27.73;;
48665;SDS011;34452;50.796;4.994;2022-08-19T05:55:34;40.33;;;25.77;;
48665;SDS011;34452;50.796;4.994;2022-08-19T05:58:02;47.28;;;28.67;;
48665;SDS011;34452;50.796;4.994;2022-08-19T06:00:28;56.38;;;29.70;;
48665;SDS011;34452;50.796;4.994;2022-08-19T06:02:56;52.65;;;29.67;;
48665;SDS011;34452;50.796;4.994;2022-08-19T06:05:28;49.35;;;27.80;;
48665;SDS011;34452;50.796;4.994;2022-08-19T06:07:54;47.35;;;28.92;;
48665;SDS011;34452;50.796;4.994;2022-08-19T06:10:21;47.65;;;28.95;;
48665;SDS011;34452;50.796;4.994;2022-08-19T06:12:47;47.75;;;29.33;;
48665;SDS011;34452;50.796;4.994;2022-08-19T06:17:40;44.47;;;26.63;;
48665;SDS011;34452;50.796;4.994;2022-08-19T06:20:08;44.40;;;26.92;;
48665;SDS011;34452;50.796;4.994;2022-08-19T06:22:38;49.72;;;27.70;;
48665;SDS011;34452;50.796;4.994;2022-08-19T06:25:06;38.70;;;26.15;;
48665;SDS011;34452;50.796;4.994;2022-08-19T06:27:34;43.88;;;26.35;;
48665;SDS011;34452;50.796;4.994;2022-08-19T06:30:00;49.85;;;27.20;;
48665;SDS011;34452;50.796;4.994;2022-08-19T06:32:26;36.90;;;23.83;;
48665;SDS011;34452;50.796;4.994;2022-08-19T06:34:52;37.90;;;24.13;;
48665;SDS011;34452;50.796;4.994;2022-08-19T06:37:17;34.80;;;24.05;;
48665;SDS011;34452;50.796;4.994;2022-08-19T06:39:44;39.50;;;24.48;;
48665;SDS011;34452;50.796;4.994;2022-08-19T06:44:38;35.55;;;21.65;;
48665;SDS011;34452;50.796;4.994;2022-08-19T06:47:07;36.05;;;22.35;;
48665;SDS011;34452;50.796;4.994;2022-08-19T06:49:35;30.60;;;20.95;;
48665;SDS011;34452;50.796;4.994;2022-08-19T06:52:01;35.15;;;21.55;;
48665;SDS011;34452;50.796;4.994;2022-08-19T06:54:28;30.65;;;19.95;;
48665;SDS011;34452;50.796;4.994;2022-08-19T06:56:55;25.23;;;17.48;;
48665;SDS011;34452;50.796;4.994;2022-08-19T06:59:23;29.08;;;18.45;;
48665;SDS011;34452;50.796;4.994;2022-08-19T07:02:19;25.35;;;15.65;;
48665;SDS011;34452;50.796;4.994;2022-08-19T07:04:45;28.23;;;16.60;;
48665;SDS011;34452;50.796;4.994;2022-08-19T07:07:12;27.25;;;17.42;;
48665;SDS011;34452;50.796;4.994;2022-08-19T07:09:41;21.95;;;15.15;;
48665;SDS011;34452;50.796;4.994;2022-08-19T07:12:08;24.35;;;14.88;;
48665;SDS011;34452;50.796;4.994;2022-08-19T07:14:38;19.13;;;13.88;;
48665;SDS011;34452;50.796;4.994;2022-08-19T07:17:06;27.95;;;14.13;;
48665;SDS011;34452;50.796;4.994;2022-08-19T07:19:33;24.38;;;13.55;;
48665;SDS011;34452;50.796;4.994;2022-08-19T07:22:01;21.88;;;13.65;;
48665;SDS011;34452;50.796;4.994;2022-08-19T07:24:28;19.88;;;11.80;;
48665;SDS011;34452;50.796;4.994;2022-08-19T07:26:57;17.30;;;11.70;;
48665;SDS011;34452;50.796;4.994;2022-08-19T07:29:27;21.98;;;12.27;;
48665;SDS011;34452;50.796;4.994;2022-08-19T07:31:54;22.90;;;12.30;;
48665;SDS011;34452;50.796;4.994;2022-08-19T07:34:22;19.13;;;11.77;;
48665;SDS011;34452;50.796;4.994;2022-08-19T07:36:48;17.92;;;11.32;;
48665;SDS011;34452;50.796;4.994;2022-08-19T07:39:16;23.08;;;12.15;;
48665;SDS011;34452;50.796;4.994;2022-08-19T07:41:45;20.48;;;10.82;;
48665;SDS011;34452;50.796;4.994;2022-08-19T07:44:12;16.80;;;10.00;;
48665;SDS011;34452;50.796;4.994;2022-08-19T07:46:40;14.77;;;9.90;;
48665;SDS011;34452;50.796;4.994;2022-08-19T07:49:09;15.45;;;8.60;;
48665;SDS011;34452;50.796;4.994;2022-08-19T07:51:44;16.60;;;8.27;;
48665;SDS011;34452;50.796;4.994;2022-08-19T07:54:11;11.20;;;7.97;;
48665;SDS011;34452;50.796;4.994;2022-08-19T07:56:37;17.23;;;7.88;;
48665;SDS011;34452;50.796;4.994;2022-08-19T07:59:03;16.38;;;7.00;;
48665;SDS011;34452;50.796;4.994;2022-08-19T08:01:29;16.58;;;7.07;;
48665;SDS011;34452;50.796;4.994;2022-08-19T08:03:56;11.75;;;6.75;;
48665;SDS011;34452;50.796;4.994;2022-08-19T08:06:41;13.57;;;7.85;;
48665;SDS011;34452;50.796;4.994;2022-08-19T08:09:27;12.15;;;6.90;;
48665;SDS011;34452;50.796;4.994;2022-08-19T08:12:26;16.60;;;7.50;;
48665;SDS011;34452;50.796;4.994;2022-08-19T08:14:56;15.10;;;7.53;;
48665;SDS011;34452;50.796;4.994;2022-08-19T08:17:25;10.80;;;6.60;;
48665;SDS011;34452;50.796;4.994;2022-08-19T08:19:52;12.52;;;5.75;;
48665;SDS011;34452;50.796;4.994;2022-08-19T08:22:19;15.07;;;6.90;;
48665;SDS011;34452;50.796;4.994;2022-08-19T08:25:07;16.93;;;8.57;;
48665;SDS011;34452;50.796;4.994;2022-08-19T08:27:37;7.82;;;5.30;;
48665;SDS011;34452;50.796;4.994;2022-08-19T08:30:06;11.68;;;6.55;;
48665;SDS011;34452;50.796;4.994;2022-08-19T08:32:34;9.85;;;5.18;;
48665;SDS011;34452;50.796;4.994;2022-08-19T08:35:03;12.98;;;5.72;;
48665;SDS011;34452;50.796;4.994;2022-08-19T08:37:29;9.07;;;4.63;;
48665;SDS011;34452;50.796;4.994;2022-08-19T08:39:55;8.95;;;4.35;;
48665;SDS011;34452;50.796;4.994;2022-08-19T08:42:24;8.48;;;4.85;;
48665;SDS011;34452;50.796;4.994;2022-08-19T08:44:58;9.68;;;4.97;;
48665;SDS011;34452;50.796;4.994;2022-08-19T08:47:26;11.65;;;4.13;;
48665;SDS011;34452;50.796;4.994;2022-08-19T08:49:59;7.80;;;3.80;;
48665;SDS011;34452;50.796;4.994;2022-08-19T08:52:31;6.63;;;4.15;;
48665;SDS011;34452;50.796;4.994;2022-08-19T08:55:10;13.38;;;4.82;;
48665;SDS011;34452;50.796;4.994;2022-08-19T08:57:47;13.65;;;5.50;;
48665;SDS011;34452;50.796;4.994;2022-08-19T09:00:15;9.18;;;4.25;;
48665;SDS011;34452;50.796;4.994;2022-08-19T09:02:46;9.52;;;5.30;;
48665;SDS011;34452;50.796;4.994;2022-08-19T09:07:41;10.23;;;4.85;;
48665;SDS011;34452;50.796;4.994;2022-08-19T09:10:44;15.30;;;5.50;;
48665;SDS011;34452;50.796;4.994;2022-08-19T09:18:51;9.35;;;4.15;;
48665;SDS011;34452;50.796;4.994;2022-08-19T09:21:18;6.57;;;3.72;;
48665;SDS011;34452;50.796;4.994;2022-08-19T09:23:47;9.35;;;3.42;;
48665;SDS011;34452;50.796;4.994;2022-08-19T09:26:15;4.00;;;2.50;;
48665;SDS011;34452;50.796;4.994;2022-08-19T09:28:44;6.07;;;3.80;;
48665;SDS011;34452;50.796;4.994;2022-08-19T09:31:11;7.63;;;3.60;;
48665;SDS011;34452;50.796;4.994;2022-08-19T09:33:38;14.70;;;5.57;;
48665;SDS011;34452;50.796;4.994;2022-08-19T09:41:02;14.23;;;4.15;;
48665;SDS011;34452;50.796;4.994;2022-08-19T09:43:29;7.50;;;3.42;;
48665;SDS011;34452;50.796;4.994;2022-08-19T09:45:56;8.52;;;4.05;;
48665;SDS011;34452;50.796;4.994;2022-08-19T09:50:47;7.93;;;4.13;;
48665;SDS011;34452;50.796;4.994;2022-08-19T09:53:15;6.32;;;3.88;;
48665;SDS011;34452;50.796;4.994;2022-08-19T09:55:42;7.63;;;3.28;;
48665;SDS011;34452;50.796;4.994;2022-08-19T09:58:08;7.50;;;3.65;;
48665;SDS011;34452;50.796;4.994;2022-08-19T10:00:36;7.85;;;3.70;;
48665;SDS011;34452;50.796;4.994;2022-08-19T10:03:03;5.55;;;3.50;;
48665;SDS011;34452;50.796;4.994;2022-08-19T10:05:28;7.22;;;4.35;;
48665;SDS011;34452;50.796;4.994;2022-08-19T10:08:13;10.52;;;5.60;;
48665;SDS011;34452;50.796;4.994;2022-08-19T10:10:40;5.45;;;3.72;;
48665;SDS011;34452;50.796;4.994;2022-08-19T10:13:09;7.60;;;3.75;;
48665;SDS011;34452;50.796;4.994;2022-08-19T10:15:35;8.02;;;4.15;;
48665;SDS011;34452;50.796;4.994;2022-08-19T10:18:02;9.27;;;4.50;;
48665;SDS011;34452;50.796;4.994;2022-08-19T10:20:27;7.45;;;4.05;;
48665;SDS011;34452;50.796;4.994;2022-08-19T10:22:55;6.03;;;4.38;;
48665;SDS011;34452;50.796;4.994;2022-08-19T10:25:20;13.43;;;4.43;;
48665;SDS011;34452;50.796;4.994;2022-08-19T10:27:46;6.45;;;4.18;;
48665;SDS011;34452;50.796;4.994;2022-08-19T10:30:12;10.02;;;4.22;;
48665;SDS011;34452;50.796;4.994;2022-08-19T10:32:38;7.90;;;5.25;;
48665;SDS011;34452;50.796;4.994;2022-08-19T10:35:05;7.53;;;3.70;;
48665;SDS011;34452;50.796;4.994;2022-08-19T10:37:33;6.20;;;3.80;;
48665;SDS011;34452;50.796;4.994;2022-08-19T10:40:02;6.55;;;3.80;;
48665;SDS011;34452;50.796;4.994;2022-08-19T10:42:31;8.65;;;4.18;;
48665;SDS011;34452;50.796;4.994;2022-08-19T10:47:22;7.90;;;4.72;;
48665;SDS011;34452;50.796;4.994;2022-08-19T10:49:48;5.30;;;3.72;;
48665;SDS011;34452;50.796;4.994;2022-08-19T10:52:32;7.15;;;3.92;;
48665;SDS011;34452;50.796;4.994;2022-08-19T10:54:59;6.13;;;3.80;;
48665;SDS011;34452;50.796;4.994;2022-08-19T10:57:44;6.72;;;2.90;;
48665;SDS011;34452;50.796;4.994;2022-08-19T11:02:36;4.03;;;2.45;;
48665;SDS011;34452;50.796;4.994;2022-08-19T11:05:02;6.80;;;3.50;;
48665;SDS011;34452;50.796;4.994;2022-08-19T11:07:28;5.40;;;3.30;;
48665;SDS011;34452;50.796;4.994;2022-08-19T11:09:54;4.47;;;2.10;;
48665;SDS011;34452;50.796;4.994;2022-08-19T11:12:19;5.18;;;2.40;;
48665;SDS011;34452;50.796;4.994;2022-08-19T11:14:45;3.85;;;2.67;;
48665;SDS011;34452;50.796;4.994;2022-08-19T11:17:11;5.15;;;3.28;;
48665;SDS011;34452;50.796;4.994;2022-08-19T11:19:38;3.70;;;2.45;;
48665;SDS011;34452;50.796;4.994;2022-08-19T11:22:06;8.65;;;2.90;;
48665;SDS011;34452;50.796;4.994;2022-08-19T11:24:34;3.60;;;2.30;;
48665;SDS011;34452;50.796;4.994;2022-08-19T11:27:02;4.47;;;2.00;;
48665;SDS011;34452;50.796;4.994;2022-08-19T11:29:34;7.47;;;2.60;;
48665;SDS011;34452;50.796;4.994;2022-08-19T11:32:04;3.40;;;2.60;;
48665;SDS011;34452;50.796;4.994;2022-08-19T11:34:32;4.20;;;2.83;;
48665;SDS011;34452;50.796;4.994;2022-08-19T11:36:58;4.95;;;2.05;;
48665;SDS011;34452;50.796;4.994;2022-08-19T11:39:25;8.88;;;3.25;;
48665;SDS011;34452;50.796;4.994;2022-08-19T11:41:52;3.70;;;3.20;;
48665;SDS011;34452;50.796;4.994;2022-08-19T11:44:18;5.68;;;3.08;;
48665;SDS011;34452;50.796;4.994;2022-08-19T11:46:44;3.17;;;2.03;;
48665;SDS011;34452;50.796;4.994;2022-08-19T11:49:11;4.47;;;2.65;;
48665;SDS011;34452;50.796;4.994;2022-08-19T11:51:38;4.65;;;2.60;;
48665;SDS011;34452;50.796;4.994;2022-08-19T11:54:04;6.22;;;2.05;;
48665;SDS011;34452;50.796;4.994;2022-08-19T11:56:30;4.82;;;2.13;;
48665;SDS011;34452;50.796;4.994;2022-08-19T12:01:23;5.97;;;2.67;;
48665;SDS011;34452;50.796;4.994;2022-08-19T12:03:50;4.25;;;2.80;;
48665;SDS011;34452;50.796;4.994;2022-08-19T12:06:21;5.93;;;2.95;;
48665;SDS011;34452;50.796;4.994;2022-08-19T12:08:50;5.50;;;3.45;;
48665;SDS011;34452;50.796;4.994;2022-08-19T12:11:17;6.68;;;2.88;;
48665;SDS011;34452;50.796;4.994;2022-08-19T12:13:43;4.18;;;2.53;;
48665;SDS011;34452;50.796;4.994;2022-08-19T12:16:15;2.95;;;2.03;;
48665;SDS011;34452;50.796;4.994;2022-08-19T12:18:44;5.45;;;2.95;;
48665;SDS011;34452;50.796;4.994;2022-08-19T12:21:12;5.03;;;2.58;;
48665;SDS011;34452;50.796;4.994;2022-08-19T12:23:39;2.85;;;2.13;;
48665;SDS011;34452;50.796;4.994;2022-08-19T12:26:05;3.17;;;2.70;;
48665;SDS011;34452;50.796;4.994;2022-08-19T12:28:32;5.18;;;3.03;;
48665;SDS011;34452;50.796;4.994;2022-08-19T12:30:57;7.00;;;3.20;;
48665;SDS011;34452;50.796;4.994;2022-08-19T12:33:23;3.17;;;2.53;;
48665;SDS011;34452;50.796;4.994;2022-08-19T12:35:52;4.47;;;3.03;;
48665;SDS011;34452;50.796;4.994;2022-08-19T12:38:18;5.25;;;3.60;;
48665;SDS011;34452;50.796;4.994;2022-08-19T12:40:46;5.28;;;3.10;;
48665;SDS011;34452;50.796;4.994;2022-08-19T12:43:13;4.22;;;2.80;;
48665;SDS011;34452;50.796;4.994;2022-08-19T12:45:40;3.75;;;2.67;;
48665;SDS011;34452;50.796;4.994;2022-08-19T12:48:07;5.38;;;2.80;;
48665;SDS011;34452;50.796;4.994;2022-08-19T12:50:33;4.70;;;2.92;;
48665;SDS011;34452;50.796;4.994;2022-08-19T12:52:59;4.72;;;3.10;;
48665;SDS011;34452;50.796;4.994;2022-08-19T12:55:24;4.38;;;2.75;;
48665;SDS011;34452;50.796;4.994;2022-08-19T12:57:53;4.90;;;3.22;;
48665;SDS011;34452;50.796;4.994;2022-08-19T13:00:19;4.60;;;2.40;;
48665;SDS011;34452;50.796;4.994;2022-08-19T13:02:47;5.88;;;3.08;;
48665;SDS011;34452;50.796;4.994;2022-08-19T13:05:16;4.63;;;3.13;;
48665;SDS011;34452;50.796;4.994;2022-08-19T13:07:47;6.63;;;3.60;;
48665;SDS011;34452;50.796;4.994;2022-08-19T13:10:14;7.78;;;3.67;;
48665;SDS011;34452;50.796;4.994;2022-08-19T13:12:42;4.53;;;3.22;;
48665;SDS011;34452;50.796;4.994;2022-08-19T13:15:09;6.25;;;3.75;;
48665;SDS011;34452;50.796;4.994;2022-08-19T13:17:36;5.00;;;3.88;;
48665;SDS011;34452;50.796;4.994;2022-08-19T13:20:02;5.82;;;4.20;;
48665;SDS011;34452;50.796;4.994;2022-08-19T13:22:30;6.78;;;4.45;;
48665;SDS011;34452;50.796;4.994;2022-08-19T13:27:22;4.15;;;3.70;;
48665;SDS011;34452;50.796;4.994;2022-08-19T13:29:47;6.18;;;4.97;;
48665;SDS011;34452;50.796;4.994;2022-08-19T13:32:32;8.40;;;5.20;;
48665;SDS011;34452;50.796;4.994;2022-08-19T13:35:16;6.63;;;4.97;;
48665;SDS011;34452;50.796;4.994;2022-08-19T13:42:52;8.07;;;5.55;;
48665;SDS011;34452;50.796;4.994;2022-08-19T13:45:20;8.20;;;5.93;;
48665;SDS011;34452;50.796;4.994;2022-08-19T13:47:49;5.70;;;4.80;;
48665;SDS011;34452;50.796;4.994;2022-08-19T13:50:17;7.80;;;4.35;;
48665;SDS011;34452;50.796;4.994;2022-08-19T13:52:45;5.68;;;4.28;;
48665;SDS011;34452;50.796;4.994;2022-08-19T13:55:12;5.75;;;3.83;;
48665;SDS011;34452;50.796;4.994;2022-08-19T13:57:40;3.83;;;2.90;;
48665;SDS011;34452;50.796;4.994;2022-08-19T14:00:08;4.43;;;3.55;;
48665;SDS011;34452;50.796;4.994;2022-08-19T14:02:36;5.93;;;3.50;;
48665;SDS011;34452;50.796;4.994;2022-08-19T14:05:03;5.38;;;3.35;;
48665;SDS011;34452;50.796;4.994;2022-08-19T14:07:31;5.57;;;3.40;;
48665;SDS011;34452;50.796;4.994;2022-08-19T14:09:57;5.28;;;3.60;;
48665;SDS011;34452;50.796;4.994;2022-08-19T14:12:22;5.03;;;3.33;;
48665;SDS011;34452;50.796;4.994;2022-08-19T14:17:14;3.33;;;2.17;;
48665;SDS011;34452;50.796;4.994;2022-08-19T14:19:41;5.45;;;2.42;;
48665;SDS011;34452;50.796;4.994;2022-08-19T14:22:07;3.40;;;1.83;;
48665;SDS011;34452;50.796;4.994;2022-08-19T14:24:34;4.15;;;2.58;;
48665;SDS011;34452;50.796;4.994;2022-08-19T14:27:04;2.35;;;2.10;;
48665;SDS011;34452;50.796;4.994;2022-08-19T14:29:31;3.03;;;2.05;;
48665;SDS011;34452;50.796;4.994;2022-08-19T14:31:57;2.28;;;1.95;;
48665;SDS011;34452;50.796;4.994;2022-08-19T14:34:24;3.20;;;2.10;;
48665;SDS011;34452;50.796;4.994;2022-08-19T14:36:51;5.40;;;2.10;;
48665;SDS011;34452;50.796;4.994;2022-08-19T14:39:17;2.58;;;1.83;;
48665;SDS011;34452;50.796;4.994;2022-08-19T14:41:43;2.55;;;1.40;;
48665;SDS011;34452;50.796;4.994;2022-08-19T14:44:10;2.45;;;1.50;;
48665;SDS011;34452;50.796;4.994;2022-08-19T14:46:37;7.68;;;2.22;;
48665;SDS011;34452;50.796;4.994;2022-08-19T14:49:04;4.70;;;1.90;;
48665;SDS011;34452;50.796;4.994;2022-08-19T14:53:55;2.70;;;1.80;;
48665;SDS011;34452;50.796;4.994;2022-08-19T14:56:23;5.05;;;1.85;;
48665;SDS011;34452;50.796;4.994;2022-08-19T14:58:51;2.80;;;1.80;;
48665;SDS011;34452;50.796;4.994;2022-08-19T15:01:18;3.72;;;2.22;;
48665;SDS011;34452;50.796;4.994;2022-08-19T15:03:45;3.50;;;2.30;;
48665;SDS011;34452;50.796;4.994;2022-08-19T15:06:12;3.40;;;2.13;;
48665;SDS011;34452;50.796;4.994;2022-08-19T15:08:38;3.15;;;2.40;;
48665;SDS011;34452;50.796;4.994;2022-08-19T15:11:08;3.10;;;2.40;;
48665;SDS011;34452;50.796;4.994;2022-08-19T15:13:34;5.53;;;2.20;;
48665;SDS011;34452;50.796;4.994;2022-08-19T15:16:00;2.63;;;2.33;;
48665;SDS011;34452;50.796;4.994;2022-08-19T15:18:26;3.42;;;2.25;;
48665;SDS011;34452;50.796;4.994;2022-08-19T15:20:52;3.22;;;1.80;;
48665;SDS011;34452;50.796;4.994;2022-08-19T15:23:20;2.25;;;1.83;;
48665;SDS011;34452;50.796;4.994;2022-08-19T15:25:47;2.25;;;1.50;;
48665;SDS011;34452;50.796;4.994;2022-08-19T15:28:13;1.73;;;1.60;;
48665;SDS011;34452;50.796;4.994;2022-08-19T15:30:41;1.40;;;1.30;;
48665;SDS011;34452;50.796;4.994;2022-08-19T15:33:09;3.13;;;2.10;;
48665;SDS011;34452;50.796;4.994;2022-08-19T15:35:39;1.85;;;1.67;;
48665;SDS011;34452;50.796;4.994;2022-08-19T15:38:06;7.07;;;1.50;;